sensor_id;sensor_type;location;lat;lon;timestamp;temperature;humidity
8422;DHT22;4248;48.196;10.924;2023-01-10T00:00:23;5.30;63.90
8422;DHT22;4248;48.196;10.924;2023-01-10T00:02:49;5.30;63.90
8422;DHT22;4248;48.196;10.924;2023-01-10T00:05:15;5.30;63.90
8422;DHT22;4248;48.196;10.924;2023-01-10T00:07:41;5.30;63.90
8422;DHT22;4248;48.196;10.924;2023-01-10T00:10:07;5.30;63.90
8422;DHT22;4248;48.196;10.924;2023-01-10T00:12:33;5.30;63.90
8422;DHT22;4248;48.196;10.924;2023-01-10T00:15:17;5.20;64.10
8422;DHT22;4248;48.196;10.924;2023-01-10T00:17:43;5.00;64.40
8422;DHT22;4248;48.196;10.924;2023-01-10T00:20:09;4.90;64.80
8422;DHT22;4248;48.196;10.924;2023-01-10T00:22:35;4.80;65.20
8422;DHT22;4248;48.196;10.924;2023-01-10T00:25:00;4.70;65.30
8422;DHT22;4248;48.196;10.924;2023-01-10T00:27:26;4.60;65.40
8422;DHT22;4248;48.196;10.924;2023-01-10T00:29:51;4.60;65.30
8422;DHT22;4248;48.196;10.924;2023-01-10T00:32:19;4.70;65.20
8422;DHT22;4248;48.196;10.924;2023-01-10T00:34:45;4.80;64.80
8422;DHT22;4248;48.196;10.924;2023-01-10T00:37:11;4.80;64.70
8422;DHT22;4248;48.196;10.924;2023-01-10T00:39:36;4.90;64.70
8422;DHT22;4248;48.196;10.924;2023-01-10T00:42:02;4.90;64.40
8422;DHT22;4248;48.196;10.924;2023-01-10T00:44:46;5.00;64.20
8422;DHT22;4248;48.196;10.924;2023-01-10T00:47:12;5.00;64.20
8422;DHT22;4248;48.196;10.924;2023-01-10T00:49:38;5.00;64.20
8422;DHT22;4248;48.196;10.924;2023-01-10T00:52:05;5.10;63.90
8422;DHT22;4248;48.196;10.924;2023-01-10T00:54:31;5.10;63.90
8422;DHT22;4248;48.196;10.924;2023-01-10T00:56:56;5.10;64.00
8422;DHT22;4248;48.196;10.924;2023-01-10T00:59:22;5.10;64.10
8422;DHT22;4248;48.196;10.924;2023-01-10T01:01:49;5.10;64.10
8422;DHT22;4248;48.196;10.924;2023-01-10T01:04:15;5.10;64.10
8422;DHT22;4248;48.196;10.924;2023-01-10T01:06:43;5.10;64.10
8422;DHT22;4248;48.196;10.924;2023-01-10T01:09:08;5.10;63.80
8422;DHT22;4248;48.196;10.924;2023-01-10T01:11:34;5.10;63.90
8422;DHT22;4248;48.196;10.924;2023-01-10T01:14:00;5.10;63.80
8422;DHT22;4248;48.196;10.924;2023-01-10T01:16:26;5.10;63.90
8422;DHT22;4248;48.196;10.924;2023-01-10T01:18:51;5.10;64.00
8422;DHT22;4248;48.196;10.924;2023-01-10T01:21:17;5.10;64.10
8422;DHT22;4248;48.196;10.924;2023-01-10T01:23:42;5.00;64.10
8422;DHT22;4248;48.196;10.924;2023-01-10T01:26:08;5.10;62.90
8422;DHT22;4248;48.196;10.924;2023-01-10T01:28:35;5.10;64.00
8422;DHT22;4248;48.196;10.924;2023-01-10T01:31:09;5.00;64.00
8422;DHT22;4248;48.196;10.924;2023-01-10T01:33:35;5.00;64.20
8422;DHT22;4248;48.196;10.924;2023-01-10T01:36:01;5.00;64.10
8422;DHT22;4248;48.196;10.924;2023-01-10T01:38:26;5.00;64.30
8422;DHT22;4248;48.196;10.924;2023-01-10T01:40:52;4.90;64.20
8422;DHT22;4248;48.196;10.924;2023-01-10T01:43:24;4.90;64.30
8422;DHT22;4248;48.196;10.924;2023-01-10T01:45:50;4.90;64.20
8422;DHT22;4248;48.196;10.924;2023-01-10T01:51:12;4.80;64.80
8422;DHT22;4248;48.196;10.924;2023-01-10T01:56:22;4.40;66.90
8422;DHT22;4248;48.196;10.924;2023-01-10T01:59:02;4.30;66.20
8422;DHT22;4248;48.196;10.924;2023-01-10T02:01:31;4.20;66.40
8422;DHT22;4248;48.196;10.924;2023-01-10T02:04:11;4.10;66.60
8422;DHT22;4248;48.196;10.924;2023-01-10T02:06:38;4.10;66.80
8422;DHT22;4248;48.196;10.924;2023-01-10T02:11:37;4.10;66.60
8422;DHT22;4248;48.196;10.924;2023-01-10T02:14:04;4.30;66.70
8422;DHT22;4248;48.196;10.924;2023-01-10T02:16:30;4.20;66.40
8422;DHT22;4248;48.196;10.924;2023-01-10T02:18:56;4.30;67.20
8422;DHT22;4248;48.196;10.924;2023-01-10T02:32:17;4.60;65.00
8422;DHT22;4248;48.196;10.924;2023-01-10T02:40:20;4.60;65.50
8422;DHT22;4248;48.196;10.924;2023-01-10T02:43:25;4.70;65.30
8422;DHT22;4248;48.196;10.924;2023-01-10T02:46:06;4.70;65.30
8422;DHT22;4248;48.196;10.924;2023-01-10T02:48:33;4.70;65.20
8422;DHT22;4248;48.196;10.924;2023-01-10T02:51:28;4.70;65.50
8422;DHT22;4248;48.196;10.924;2023-01-10T02:54:24;4.70;65.60
8422;DHT22;4248;48.196;10.924;2023-01-10T02:57:22;4.70;65.90
8422;DHT22;4248;48.196;10.924;2023-01-10T03:00:22;4.60;66.70
8422;DHT22;4248;48.196;10.924;2023-01-10T03:16:11;4.30;68.80
8422;DHT22;4248;48.196;10.924;2023-01-10T03:18:42;4.20;69.70
8422;DHT22;4248;48.196;10.924;2023-01-10T03:21:10;4.20;69.80
8422;DHT22;4248;48.196;10.924;2023-01-10T03:23:36;4.10;69.90
8422;DHT22;4248;48.196;10.924;2023-01-10T03:26:04;4.10;70.00
8422;DHT22;4248;48.196;10.924;2023-01-10T03:28:40;4.10;70.00
8422;DHT22;4248;48.196;10.924;2023-01-10T03:31:13;4.10;70.10
8422;DHT22;4248;48.196;10.924;2023-01-10T03:33:40;4.10;70.60
8422;DHT22;4248;48.196;10.924;2023-01-10T03:36:27;4.20;70.80
8422;DHT22;4248;48.196;10.924;2023-01-10T03:38:56;4.30;71.10
8422;DHT22;4248;48.196;10.924;2023-01-10T03:41:34;4.40;70.50
8422;DHT22;4248;48.196;10.924;2023-01-10T03:44:20;4.50;70.50
8422;DHT22;4248;48.196;10.924;2023-01-10T03:50:03;4.60;70.40
8422;DHT22;4248;48.196;10.924;2023-01-10T03:52:32;4.60;70.50
8422;DHT22;4248;48.196;10.924;2023-01-10T03:54:58;4.60;71.00
8422;DHT22;4248;48.196;10.924;2023-01-10T03:57:26;4.50;71.30
8422;DHT22;4248;48.196;10.924;2023-01-10T03:59:54;4.50;71.70
8422;DHT22;4248;48.196;10.924;2023-01-10T04:02:24;4.50;71.80
8422;DHT22;4248;48.196;10.924;2023-01-10T04:04:51;4.40;72.10
8422;DHT22;4248;48.196;10.924;2023-01-10T04:07:16;4.50;72.00
8422;DHT22;4248;48.196;10.924;2023-01-10T04:09:42;4.60;71.90
8422;DHT22;4248;48.196;10.924;2023-01-10T04:12:07;4.60;71.70
8422;DHT22;4248;48.196;10.924;2023-01-10T04:14:33;4.60;71.80
8422;DHT22;4248;48.196;10.924;2023-01-10T04:16:58;4.70;71.70
8422;DHT22;4248;48.196;10.924;2023-01-10T04:19:24;4.70;71.70
8422;DHT22;4248;48.196;10.924;2023-01-10T04:21:50;4.60;71.70
8422;DHT22;4248;48.196;10.924;2023-01-10T04:24:16;4.60;72.10
8422;DHT22;4248;48.196;10.924;2023-01-10T04:26:41;4.60;72.50
8422;DHT22;4248;48.196;10.924;2023-01-10T04:29:07;4.50;73.10
8422;DHT22;4248;48.196;10.924;2023-01-10T04:31:33;4.40;73.10
8422;DHT22;4248;48.196;10.924;2023-01-10T04:33:58;4.40;73.20
8422;DHT22;4248;48.196;10.924;2023-01-10T04:36:24;4.50;72.20
8422;DHT22;4248;48.196;10.924;2023-01-10T04:38:50;4.50;73.40
8422;DHT22;4248;48.196;10.924;2023-01-10T04:41:16;4.60;73.40
8422;DHT22;4248;48.196;10.924;2023-01-10T04:43:41;4.60;73.30
8422;DHT22;4248;48.196;10.924;2023-01-10T04:46:07;4.80;73.40
8422;DHT22;4248;48.196;10.924;2023-01-10T04:48:32;4.70;73.40
8422;DHT22;4248;48.196;10.924;2023-01-10T04:50:58;4.70;73.40
8422;DHT22;4248;48.196;10.924;2023-01-10T04:53:24;4.70;72.80
8422;DHT22;4248;48.196;10.924;2023-01-10T04:55:50;4.60;72.80
8422;DHT22;4248;48.196;10.924;2023-01-10T04:58:15;4.60;73.30
8422;DHT22;4248;48.196;10.924;2023-01-10T05:00:41;4.60;73.30
8422;DHT22;4248;48.196;10.924;2023-01-10T05:03:07;4.60;73.10
8422;DHT22;4248;48.196;10.924;2023-01-10T05:05:32;4.70;72.60
8422;DHT22;4248;48.196;10.924;2023-01-10T05:07:58;4.70;72.50
8422;DHT22;4248;48.196;10.924;2023-01-10T05:10:24;4.60;73.00
8422;DHT22;4248;48.196;10.924;2023-01-10T05:12:50;4.50;73.20
8422;DHT22;4248;48.196;10.924;2023-01-10T05:15:16;4.50;73.20
8422;DHT22;4248;48.196;10.924;2023-01-10T05:17:42;4.50;73.20
8422;DHT22;4248;48.196;10.924;2023-01-10T05:20:08;4.50;73.20
8422;DHT22;4248;48.196;10.924;2023-01-10T05:22:34;4.40;73.10
8422;DHT22;4248;48.196;10.924;2023-01-10T05:25:00;4.50;73.20
8422;DHT22;4248;48.196;10.924;2023-01-10T05:27:26;4.40;73.10
8422;DHT22;4248;48.196;10.924;2023-01-10T05:29:51;4.40;73.20
8422;DHT22;4248;48.196;10.924;2023-01-10T05:32:17;4.50;73.20
8422;DHT22;4248;48.196;10.924;2023-01-10T05:34:42;4.40;73.20
8422;DHT22;4248;48.196;10.924;2023-01-10T05:37:08;4.40;73.10
8422;DHT22;4248;48.196;10.924;2023-01-10T05:39:34;4.40;73.20
8422;DHT22;4248;48.196;10.924;2023-01-10T05:41:59;4.40;73.20
8422;DHT22;4248;48.196;10.924;2023-01-10T05:44:25;4.40;73.20
8422;DHT22;4248;48.196;10.924;2023-01-10T05:46:50;4.40;73.20
8422;DHT22;4248;48.196;10.924;2023-01-10T05:49:16;4.40;73.20
8422;DHT22;4248;48.196;10.924;2023-01-10T05:51:42;4.40;73.20
8422;DHT22;4248;48.196;10.924;2023-01-10T05:54:07;4.40;73.10
8422;DHT22;4248;48.196;10.924;2023-01-10T05:56:33;4.40;73.10
8422;DHT22;4248;48.196;10.924;2023-01-10T05:58:59;4.40;73.30
8422;DHT22;4248;48.196;10.924;2023-01-10T06:01:24;4.40;73.20
8422;DHT22;4248;48.196;10.924;2023-01-10T06:03:50;4.40;73.10
8422;DHT22;4248;48.196;10.924;2023-01-10T06:06:15;4.40;73.10
8422;DHT22;4248;48.196;10.924;2023-01-10T06:08:41;4.40;73.10
8422;DHT22;4248;48.196;10.924;2023-01-10T06:11:07;4.40;73.10
8422;DHT22;4248;48.196;10.924;2023-01-10T06:13:32;4.40;73.10
8422;DHT22;4248;48.196;10.924;2023-01-10T06:15:58;4.40;73.10
8422;DHT22;4248;48.196;10.924;2023-01-10T06:18:24;4.40;73.10
8422;DHT22;4248;48.196;10.924;2023-01-10T06:20:50;4.40;73.10
8422;DHT22;4248;48.196;10.924;2023-01-10T06:23:16;4.40;73.20
8422;DHT22;4248;48.196;10.924;2023-01-10T06:25:41;4.40;73.10
8422;DHT22;4248;48.196;10.924;2023-01-10T06:28:08;4.30;73.00
8422;DHT22;4248;48.196;10.924;2023-01-10T06:30:34;4.30;73.00
8422;DHT22;4248;48.196;10.924;2023-01-10T06:33:05;4.40;73.10
8422;DHT22;4248;48.196;10.924;2023-01-10T06:35:31;4.40;73.10
8422;DHT22;4248;48.196;10.924;2023-01-10T06:37:57;4.40;73.10
8422;DHT22;4248;48.196;10.924;2023-01-10T06:40:23;4.40;73.10
8422;DHT22;4248;48.196;10.924;2023-01-10T06:42:49;4.40;73.10
8422;DHT22;4248;48.196;10.924;2023-01-10T06:45:15;4.40;73.10
8422;DHT22;4248;48.196;10.924;2023-01-10T06:47:41;4.40;73.10
8422;DHT22;4248;48.196;10.924;2023-01-10T06:50:07;4.40;73.10
8422;DHT22;4248;48.196;10.924;2023-01-10T06:52:33;4.40;72.10
8422;DHT22;4248;48.196;10.924;2023-01-10T06:54:58;4.40;73.20
8422;DHT22;4248;48.196;10.924;2023-01-10T06:57:24;4.40;73.10
8422;DHT22;4248;48.196;10.924;2023-01-10T06:59:49;4.40;73.20
8422;DHT22;4248;48.196;10.924;2023-01-10T07:02:16;4.40;73.00
8422;DHT22;4248;48.196;10.924;2023-01-10T07:04:41;4.50;72.60
8422;DHT22;4248;48.196;10.924;2023-01-10T07:07:07;4.50;72.60
8422;DHT22;4248;48.196;10.924;2023-01-10T07:09:33;4.50;72.60
8422;DHT22;4248;48.196;10.924;2023-01-10T07:11:58;4.50;72.70
8422;DHT22;4248;48.196;10.924;2023-01-10T07:14:24;4.50;72.90
8422;DHT22;4248;48.196;10.924;2023-01-10T07:16:49;4.30;73.00
8422;DHT22;4248;48.196;10.924;2023-01-10T07:19:15;4.20;73.00
8422;DHT22;4248;48.196;10.924;2023-01-10T07:21:42;4.30;73.00
8422;DHT22;4248;48.196;10.924;2023-01-10T07:24:08;4.40;73.10
8422;DHT22;4248;48.196;10.924;2023-01-10T07:26:34;4.40;73.20
8422;DHT22;4248;48.196;10.924;2023-01-10T07:29:00;4.50;73.20
8422;DHT22;4248;48.196;10.924;2023-01-10T07:31:26;4.50;73.20
8422;DHT22;4248;48.196;10.924;2023-01-10T07:33:52;4.60;73.30
8422;DHT22;4248;48.196;10.924;2023-01-10T07:36:18;4.60;73.10
8422;DHT22;4248;48.196;10.924;2023-01-10T07:38:43;4.70;72.80
8422;DHT22;4248;48.196;10.924;2023-01-10T07:41:09;4.70;72.60
8422;DHT22;4248;48.196;10.924;2023-01-10T07:43:35;4.80;72.40
8422;DHT22;4248;48.196;10.924;2023-01-10T07:46:02;4.80;72.50
8422;DHT22;4248;48.196;10.924;2023-01-10T07:48:28;4.80;72.20
8422;DHT22;4248;48.196;10.924;2023-01-10T07:50:55;4.90;72.00
8422;DHT22;4248;48.196;10.924;2023-01-10T07:53:21;4.90;72.10
8422;DHT22;4248;48.196;10.924;2023-01-10T07:55:47;4.70;72.20
8422;DHT22;4248;48.196;10.924;2023-01-10T07:58:12;4.60;72.90
8422;DHT22;4248;48.196;10.924;2023-01-10T08:00:39;4.60;73.30
8422;DHT22;4248;48.196;10.924;2023-01-10T08:03:05;4.50;73.20
8422;DHT22;4248;48.196;10.924;2023-01-10T08:05:31;4.50;73.20
8422;DHT22;4248;48.196;10.924;2023-01-10T08:08:06;4.60;73.30
8422;DHT22;4248;48.196;10.924;2023-01-10T08:10:33;4.80;72.90
8422;DHT22;4248;48.196;10.924;2023-01-10T08:12:59;4.90;72.40
8422;DHT22;4248;48.196;10.924;2023-01-10T08:15:24;4.90;71.80
8422;DHT22;4248;48.196;10.924;2023-01-10T08:17:50;5.00;71.50
8422;DHT22;4248;48.196;10.924;2023-01-10T08:20:16;5.10;71.50
8422;DHT22;4248;48.196;10.924;2023-01-10T08:22:41;5.00;71.40
8422;DHT22;4248;48.196;10.924;2023-01-10T08:25:07;4.90;71.70
8422;DHT22;4248;48.196;10.924;2023-01-10T08:27:33;4.80;72.00
8422;DHT22;4248;48.196;10.924;2023-01-10T08:29:59;4.70;72.30
8422;DHT22;4248;48.196;10.924;2023-01-10T08:32:24;4.60;72.80
8422;DHT22;4248;48.196;10.924;2023-01-10T08:34:50;4.60;73.30
8422;DHT22;4248;48.196;10.924;2023-01-10T08:37:15;4.50;72.90
8422;DHT22;4248;48.196;10.924;2023-01-10T08:39:41;4.50;73.10
8422;DHT22;4248;48.196;10.924;2023-01-10T08:42:07;4.60;72.90
8422;DHT22;4248;48.196;10.924;2023-01-10T08:44:32;4.70;72.60
8422;DHT22;4248;48.196;10.924;2023-01-10T08:46:58;4.70;72.00
8422;DHT22;4248;48.196;10.924;2023-01-10T08:49:23;4.80;71.50
8422;DHT22;4248;48.196;10.924;2023-01-10T08:51:49;4.90;72.50
8422;DHT22;4248;48.196;10.924;2023-01-10T08:54:15;5.00;71.20
8422;DHT22;4248;48.196;10.924;2023-01-10T08:56:40;5.00;70.80
8422;DHT22;4248;48.196;10.924;2023-01-10T08:59:07;5.00;70.60
8422;DHT22;4248;48.196;10.924;2023-01-10T09:01:32;5.00;70.50
8422;DHT22;4248;48.196;10.924;2023-01-10T09:03:58;5.10;70.50
8422;DHT22;4248;48.196;10.924;2023-01-10T09:06:24;5.20;69.00
8422;DHT22;4248;48.196;10.924;2023-01-10T09:08:50;5.20;70.00
8422;DHT22;4248;48.196;10.924;2023-01-10T09:11:15;5.40;69.70
8422;DHT22;4248;48.196;10.924;2023-01-10T09:13:41;5.50;69.40
8422;DHT22;4248;48.196;10.924;2023-01-10T09:16:07;5.60;69.10
8422;DHT22;4248;48.196;10.924;2023-01-10T09:18:33;5.70;68.60
8422;DHT22;4248;48.196;10.924;2023-01-10T09:20:59;5.80;68.60
8422;DHT22;4248;48.196;10.924;2023-01-10T09:23:25;5.90;68.20
8422;DHT22;4248;48.196;10.924;2023-01-10T09:25:53;5.90;68.00
8422;DHT22;4248;48.196;10.924;2023-01-10T09:28:21;6.10;67.70
8422;DHT22;4248;48.196;10.924;2023-01-10T09:30:48;6.20;67.40
8422;DHT22;4248;48.196;10.924;2023-01-10T09:33:14;6.30;67.10
8422;DHT22;4248;48.196;10.924;2023-01-10T09:35:41;6.40;67.10
8422;DHT22;4248;48.196;10.924;2023-01-10T09:38:14;6.50;66.50
8422;DHT22;4248;48.196;10.924;2023-01-10T09:52:17;6.60;65.10
8422;DHT22;4248;48.196;10.924;2023-01-10T09:54:44;6.60;65.80
8422;DHT22;4248;48.196;10.924;2023-01-10T09:57:20;6.40;64.50
8422;DHT22;4248;48.196;10.924;2023-01-10T09:59:47;6.50;65.30
8422;DHT22;4248;48.196;10.924;2023-01-10T10:02:25;6.40;64.40
8422;DHT22;4248;48.196;10.924;2023-01-10T10:05:03;6.40;64.50
8422;DHT22;4248;48.196;10.924;2023-01-10T10:07:30;6.20;62.30
8422;DHT22;4248;48.196;10.924;2023-01-10T10:09:56;6.00;61.90
8422;DHT22;4248;48.196;10.924;2023-01-10T10:17:42;6.00;60.90
8422;DHT22;4248;48.196;10.924;2023-01-10T10:26:06;6.50;59.40
8422;DHT22;4248;48.196;10.924;2023-01-10T10:31:15;6.90;58.20
8422;DHT22;4248;48.196;10.924;2023-01-10T10:36:46;6.80;59.00
8422;DHT22;4248;48.196;10.924;2023-01-10T10:39:20;6.70;59.30
8422;DHT22;4248;48.196;10.924;2023-01-10T10:41:50;6.50;58.60
8422;DHT22;4248;48.196;10.924;2023-01-10T10:46:52;6.40;59.00
8422;DHT22;4248;48.196;10.924;2023-01-10T10:51:59;6.00;59.40
8422;DHT22;4248;48.196;10.924;2023-01-10T10:54:27;6.00;59.60
8422;DHT22;4248;48.196;10.924;2023-01-10T10:56:53;6.10;59.50
8422;DHT22;4248;48.196;10.924;2023-01-10T10:59:20;6.10;59.20
8422;DHT22;4248;48.196;10.924;2023-01-10T11:01:46;6.30;59.10
8422;DHT22;4248;48.196;10.924;2023-01-10T11:04:21;6.40;58.80
8422;DHT22;4248;48.196;10.924;2023-01-10T11:06:48;6.50;58.40
8422;DHT22;4248;48.196;10.924;2023-01-10T11:09:17;6.50;58.50
8422;DHT22;4248;48.196;10.924;2023-01-10T11:11:48;6.60;58.30
8422;DHT22;4248;48.196;10.924;2023-01-10T11:14:43;6.60;58.20
8422;DHT22;4248;48.196;10.924;2023-01-10T11:17:25;6.90;58.00
8422;DHT22;4248;48.196;10.924;2023-01-10T11:19:56;7.00;57.70
8422;DHT22;4248;48.196;10.924;2023-01-10T11:22:23;7.00;57.90
8422;DHT22;4248;48.196;10.924;2023-01-10T11:24:56;7.10;57.90
8422;DHT22;4248;48.196;10.924;2023-01-10T11:27:25;7.10;57.60
8422;DHT22;4248;48.196;10.924;2023-01-10T11:29:55;7.20;57.30
8422;DHT22;4248;48.196;10.924;2023-01-10T11:34:58;7.20;56.90
8422;DHT22;4248;48.196;10.924;2023-01-10T11:37:29;7.20;56.50
8422;DHT22;4248;48.196;10.924;2023-01-10T11:40:37;7.00;56.10
8422;DHT22;4248;48.196;10.924;2023-01-10T11:43:27;7.00;56.50
8422;DHT22;4248;48.196;10.924;2023-01-10T11:46:02;7.20;56.20
8422;DHT22;4248;48.196;10.924;2023-01-10T11:51:24;7.60;55.40
8422;DHT22;4248;48.196;10.924;2023-01-10T11:54:02;7.50;55.70
8422;DHT22;4248;48.196;10.924;2023-01-10T11:56:31;7.40;54.10
8422;DHT22;4248;48.196;10.924;2023-01-10T11:59:05;7.40;55.20
8422;DHT22;4248;48.196;10.924;2023-01-10T12:01:42;7.20;53.90
8422;DHT22;4248;48.196;10.924;2023-01-10T12:04:14;7.10;54.20
8422;DHT22;4248;48.196;10.924;2023-01-10T12:06:45;7.30;54.40
8422;DHT22;4248;48.196;10.924;2023-01-10T12:09:32;7.10;52.20
8422;DHT22;4248;48.196;10.924;2023-01-10T12:12:09;7.20;52.70
8422;DHT22;4248;48.196;10.924;2023-01-10T12:14:38;7.20;52.30
8422;DHT22;4248;48.196;10.924;2023-01-10T12:17:04;7.40;52.00
8422;DHT22;4248;48.196;10.924;2023-01-10T12:19:30;7.30;51.10
8422;DHT22;4248;48.196;10.924;2023-01-10T12:22:01;7.30;51.40
8422;DHT22;4248;48.196;10.924;2023-01-10T12:24:33;7.30;51.80
8422;DHT22;4248;48.196;10.924;2023-01-10T12:27:02;7.30;52.60
8422;DHT22;4248;48.196;10.924;2023-01-10T12:29:37;7.40;51.40
8422;DHT22;4248;48.196;10.924;2023-01-10T12:32:09;6.90;51.00
8422;DHT22;4248;48.196;10.924;2023-01-10T12:34:47;6.60;51.40
8422;DHT22;4248;48.196;10.924;2023-01-10T12:37:33;6.60;52.20
8422;DHT22;4248;48.196;10.924;2023-01-10T12:40:12;6.80;52.30
8422;DHT22;4248;48.196;10.924;2023-01-10T12:43:04;7.10;51.90
8422;DHT22;4248;48.196;10.924;2023-01-10T12:45:52;7.30;51.60
8422;DHT22;4248;48.196;10.924;2023-01-10T12:51:13;7.20;51.60
8422;DHT22;4248;48.196;10.924;2023-01-10T12:53:45;7.10;52.30
8422;DHT22;4248;48.196;10.924;2023-01-10T12:56:14;7.00;52.20
8422;DHT22;4248;48.196;10.924;2023-01-10T12:58:43;6.90;52.50
8422;DHT22;4248;48.196;10.924;2023-01-10T13:01:22;6.80;52.70
8422;DHT22;4248;48.196;10.924;2023-01-10T13:03:56;6.80;52.80
8422;DHT22;4248;48.196;10.924;2023-01-10T13:06:29;6.80;53.00
8422;DHT22;4248;48.196;10.924;2023-01-10T13:08:57;6.60;52.20
8422;DHT22;4248;48.196;10.924;2023-01-10T13:11:28;6.40;52.40
8422;DHT22;4248;48.196;10.924;2023-01-10T13:13:58;6.30;52.70
8422;DHT22;4248;48.196;10.924;2023-01-10T13:16:35;6.20;51.50
8422;DHT22;4248;48.196;10.924;2023-01-10T13:21:38;6.30;52.40
8422;DHT22;4248;48.196;10.924;2023-01-10T13:24:19;6.40;52.40
8422;DHT22;4248;48.196;10.924;2023-01-10T13:26:57;6.40;52.20
8422;DHT22;4248;48.196;10.924;2023-01-10T13:29:30;6.30;51.80
8422;DHT22;4248;48.196;10.924;2023-01-10T13:32:24;6.40;51.80
8422;DHT22;4248;48.196;10.924;2023-01-10T13:34:51;6.30;51.60
8422;DHT22;4248;48.196;10.924;2023-01-10T13:37:22;6.20;51.20
8422;DHT22;4248;48.196;10.924;2023-01-10T13:39:56;6.30;51.80
8422;DHT22;4248;48.196;10.924;2023-01-10T13:42:32;6.30;51.60
8422;DHT22;4248;48.196;10.924;2023-01-10T13:45:21;6.40;51.10
8422;DHT22;4248;48.196;10.924;2023-01-10T13:50:57;6.50;50.50
8422;DHT22;4248;48.196;10.924;2023-01-10T13:55:57;6.70;49.80
8422;DHT22;4248;48.196;10.924;2023-01-10T14:01:30;7.00;50.10
8422;DHT22;4248;48.196;10.924;2023-01-10T14:04:20;6.90;49.90
8422;DHT22;4248;48.196;10.924;2023-01-10T14:09:52;6.30;50.70
8422;DHT22;4248;48.196;10.924;2023-01-10T14:12:37;6.30;51.10
8422;DHT22;4248;48.196;10.924;2023-01-10T14:17:56;6.30;51.30
8422;DHT22;4248;48.196;10.924;2023-01-10T14:20:22;6.20;51.50
8422;DHT22;4248;48.196;10.924;2023-01-10T14:25:29;6.30;51.80
8422;DHT22;4248;48.196;10.924;2023-01-10T14:27:56;6.40;51.60
8422;DHT22;4248;48.196;10.924;2023-01-10T14:30:34;6.60;51.40
8422;DHT22;4248;48.196;10.924;2023-01-10T14:33:15;6.70;51.00
8422;DHT22;4248;48.196;10.924;2023-01-10T14:35:45;6.80;50.60
8422;DHT22;4248;48.196;10.924;2023-01-10T14:38:26;6.80;49.90
8422;DHT22;4248;48.196;10.924;2023-01-10T14:41:09;6.80;50.50
8422;DHT22;4248;48.196;10.924;2023-01-10T14:43:41;6.80;50.70
8422;DHT22;4248;48.196;10.924;2023-01-10T14:46:13;6.80;50.70
8422;DHT22;4248;48.196;10.924;2023-01-10T14:48:46;6.90;50.50
8422;DHT22;4248;48.196;10.924;2023-01-10T14:51:30;6.90;50.00
8422;DHT22;4248;48.196;10.924;2023-01-10T14:56:36;6.70;49.80
8422;DHT22;4248;48.196;10.924;2023-01-10T14:59:32;6.60;49.70
8422;DHT22;4248;48.196;10.924;2023-01-10T15:02:20;6.60;49.70
8422;DHT22;4248;48.196;10.924;2023-01-10T15:04:58;6.40;50.00
8422;DHT22;4248;48.196;10.924;2023-01-10T15:07:25;6.20;50.70
8422;DHT22;4248;48.196;10.924;2023-01-10T15:09:53;6.10;51.10
8422;DHT22;4248;48.196;10.924;2023-01-10T15:12:22;6.00;51.30
8422;DHT22;4248;48.196;10.924;2023-01-10T15:14:58;5.90;51.60
8422;DHT22;4248;48.196;10.924;2023-01-10T15:17:25;5.70;51.80
8422;DHT22;4248;48.196;10.924;2023-01-10T15:19:52;5.70;52.10
8422;DHT22;4248;48.196;10.924;2023-01-10T15:22:29;5.60;52.10
8422;DHT22;4248;48.196;10.924;2023-01-10T15:25:04;5.40;52.30
8422;DHT22;4248;48.196;10.924;2023-01-10T15:27:31;5.20;52.60
8422;DHT22;4248;48.196;10.924;2023-01-10T15:29:57;5.10;52.90
8422;DHT22;4248;48.196;10.924;2023-01-10T15:34:53;4.90;53.20
8422;DHT22;4248;48.196;10.924;2023-01-10T15:37:25;4.80;53.30
8422;DHT22;4248;48.196;10.924;2023-01-10T15:39:52;4.70;53.40
8422;DHT22;4248;48.196;10.924;2023-01-10T15:42:20;4.60;53.60
8422;DHT22;4248;48.196;10.924;2023-01-10T15:44:50;4.60;53.60
8422;DHT22;4248;48.196;10.924;2023-01-10T15:47:39;4.50;53.80
8422;DHT22;4248;48.196;10.924;2023-01-10T15:50:27;4.50;53.80
8422;DHT22;4248;48.196;10.924;2023-01-10T15:52:57;4.40;53.90
8422;DHT22;4248;48.196;10.924;2023-01-10T15:55:43;4.30;54.10
8422;DHT22;4248;48.196;10.924;2023-01-10T15:58:29;4.30;54.30
8422;DHT22;4248;48.196;10.924;2023-01-10T16:00:56;4.10;54.40
8422;DHT22;4248;48.196;10.924;2023-01-10T16:05:53;3.80;55.00
8422;DHT22;4248;48.196;10.924;2023-01-10T16:08:23;3.70;55.30
8422;DHT22;4248;48.196;10.924;2023-01-10T16:10:58;3.60;55.40
8422;DHT22;4248;48.196;10.924;2023-01-10T16:13:24;3.60;55.30
8422;DHT22;4248;48.196;10.924;2023-01-10T16:15:56;3.60;55.60
8422;DHT22;4248;48.196;10.924;2023-01-10T16:18:23;3.50;55.60
8422;DHT22;4248;48.196;10.924;2023-01-10T16:20:50;3.40;55.80
8422;DHT22;4248;48.196;10.924;2023-01-10T16:23:19;3.30;55.90
8422;DHT22;4248;48.196;10.924;2023-01-10T16:25:48;3.20;56.10
8422;DHT22;4248;48.196;10.924;2023-01-10T16:28:16;3.10;56.20
8422;DHT22;4248;48.196;10.924;2023-01-10T16:30:43;3.00;56.40
8422;DHT22;4248;48.196;10.924;2023-01-10T16:33:16;2.90;56.60
8422;DHT22;4248;48.196;10.924;2023-01-10T16:35:46;2.90;56.50
8422;DHT22;4248;48.196;10.924;2023-01-10T16:38:12;2.80;56.50
8422;DHT22;4248;48.196;10.924;2023-01-10T16:40:53;2.80;56.50
8422;DHT22;4248;48.196;10.924;2023-01-10T16:43:20;2.70;56.60
8422;DHT22;4248;48.196;10.924;2023-01-10T16:45:47;2.60;56.70
8422;DHT22;4248;48.196;10.924;2023-01-10T16:48:13;2.50;56.90
8422;DHT22;4248;48.196;10.924;2023-01-10T16:50:40;2.50;57.00
8422;DHT22;4248;48.196;10.924;2023-01-10T16:53:06;2.40;56.90
8422;DHT22;4248;48.196;10.924;2023-01-10T16:55:44;2.40;56.90
8422;DHT22;4248;48.196;10.924;2023-01-10T16:58:11;2.40;56.70
8422;DHT22;4248;48.196;10.924;2023-01-10T17:00:38;2.40;56.60
8422;DHT22;4248;48.196;10.924;2023-01-10T17:03:06;2.40;56.50
8422;DHT22;4248;48.196;10.924;2023-01-10T17:05:35;2.40;56.70
8422;DHT22;4248;48.196;10.924;2023-01-10T17:08:01;2.40;56.50
8422;DHT22;4248;48.196;10.924;2023-01-10T17:10:29;2.40;56.50
8422;DHT22;4248;48.196;10.924;2023-01-10T17:12:55;2.40;56.50
8422;DHT22;4248;48.196;10.924;2023-01-10T17:15:21;2.40;56.60
8422;DHT22;4248;48.196;10.924;2023-01-10T17:17:46;2.40;56.60
8422;DHT22;4248;48.196;10.924;2023-01-10T17:20:13;2.40;56.60
8422;DHT22;4248;48.196;10.924;2023-01-10T17:22:40;2.40;56.70
8422;DHT22;4248;48.196;10.924;2023-01-10T17:25:10;2.40;57.30
8422;DHT22;4248;48.196;10.924;2023-01-10T17:27:37;2.40;57.00
8422;DHT22;4248;48.196;10.924;2023-01-10T17:30:02;2.40;57.00
8422;DHT22;4248;48.196;10.924;2023-01-10T17:32:28;2.40;57.10
8422;DHT22;4248;48.196;10.924;2023-01-10T17:34:54;2.40;57.20
8422;DHT22;4248;48.196;10.924;2023-01-10T17:37:19;2.40;57.20
8422;DHT22;4248;48.196;10.924;2023-01-10T17:39:45;2.30;57.20
8422;DHT22;4248;48.196;10.924;2023-01-10T17:42:10;2.50;57.40
8422;DHT22;4248;48.196;10.924;2023-01-10T17:44:36;2.30;57.40
8422;DHT22;4248;48.196;10.924;2023-01-10T17:47:02;2.20;57.50
8422;DHT22;4248;48.196;10.924;2023-01-10T17:49:27;2.20;57.70
8422;DHT22;4248;48.196;10.924;2023-01-10T17:51:53;2.10;58.00
8422;DHT22;4248;48.196;10.924;2023-01-10T17:54:20;2.00;58.30
8422;DHT22;4248;48.196;10.924;2023-01-10T17:56:45;2.00;58.70
8422;DHT22;4248;48.196;10.924;2023-01-10T17:59:11;2.00;58.60
8422;DHT22;4248;48.196;10.924;2023-01-10T18:01:37;2.00;58.60
8422;DHT22;4248;48.196;10.924;2023-01-10T18:04:02;2.00;58.60
8422;DHT22;4248;48.196;10.924;2023-01-10T18:06:28;2.00;58.60